KTXK/TXK METAR and TAF weather

Enter ICAO airport designator
Station Type Date Time Source
KTXK METAR 2021/01/22 05:53 UTC NOAA

KTXK 220553Z AUTO 14005KT 7SM SCT004 OVC100 10/08 A2992 RMK AO2 SLP132 60001 T01000083 10106 20100 401220072 55007


Station Type Date Time Source
KTXK Decoded METAR 2021/01/22 05:53 UTC NOAA

TEXARKANA RGNL WEBB FIELD, AR, United States (KTXK) 33-27N 093-59W 111M
Jan 22, 2021 - 12:53 AM EST / 2021.01.22 0553 UTC
Wind: from the SE (140 degrees) at 6 MPH (5 KT):0
Visibility: 7 mile(s):0
Sky conditions: overcast
Temperature: 50.0 F (10.0 C)
Dew Point: 46.9 F (8.3 C)
Relative Humidity: 89%
Pressure (altimeter): 29.92 in. Hg (1013 hPa)
Pressure tendency: 0.02 inches (0.7 hPa) lower than three hours ago
ob: KTXK 220553Z AUTO 14005KT 7SM SCT004 OVC100 10/08 A2992 RMK AO2 SLP132 60001 T01000083 10106 20100 401220072 55007
cycle: 6

Station Type Date Time Source
KTXK TAF 2021/01/22 06:22 UTC NOAA

TAF KTXK 220520Z 2206/2306 VRB03KT 5SM BR VCSH SCT004 SCT010 OVC100
TEMPO 2206/2210 2SM BR OVC003
FM221000 04005KT 2SM BR VCSH OVC005
FM221500 05007KT 5SM BR VCSH SCT007 OVC015
FM221700 07007KT P6SM OVC015
FM230400 07007KT P6SM BKN040

Example: see airport list